Latest Conditions
At L.F.Wade Int. Airport
Recorded at 3:55 am
Mostly Cloudy
Temp.: 
16°C/60°F
Humidity: 
61%
Wind: 
NNE 16KT
or 18mph
UV Index: 
N/A
Island Observations
Observations
Wednesday, February 22, 2017

Observations are in local time and taken at least once an hour, or upon the start and end of specified events such as showers and thunderstorms.

Time Sky / Weather Wind Speed/Gusts Temp. R.H. Pressure
     knots (mph)  °C (°F)  %  mb / "Hg
 03:55 Mostly Cloudy  NNE 16/0 (18/0) 16(60) 61 1013 / 29.91
 02:55 Partly Cloudy  N 16/0 (18/0) 15(59) 61 1014 / 29.93
 01:55 Partly Cloudy  N 18/28 (21/32) 15(59) 66 1014 / 29.94
 00:55 Partly Cloudy  N 17/0 (20/0) 15(59) 61 1015 / 29.96
 00:23 Mostly Cloudy Showers NNE 21/0 (24/0) 14(58) 67 1015 / 29.97
 00:07 Mostly Cloudy Showers N 16/0 (18/0) 15(59) 60 1015 / 29.97
 23:55 Mostly Cloudy Showers NNE 19/0 (22/0) 15(59) 57 1015 / 29.97
 22:55 Mostly Cloudy Showers NNE 21/0 (24/0) 15(59) 57 1015 / 29.97
 21:55 Mostly Cloudy Showers NNE 21/0 (24/0) 15(59) 59 1015 / 29.97
 20:55 Mostly Cloudy Showers NNE 23/35 (26/40) 15(59) 60 1015 / 29.96
 19:55 Partly Cloudy Showers N 23/0 (26/0) 15(59) 62 1014 / 29.95
 18:55 Mostly Cloudy Showers N 23/0 (26/0) 16(60) 55 1014 / 29.95
 18:13 Mostly Cloudy Showers N 25/0 (29/0) 15(59) 64 1014 / 29.95
 18:09 Mostly Cloudy Showers NNE 23/33 (26/38) 15(60) 61 1014 / 29.94
 17:55 Mostly Cloudy  N 23/0 (26/0) 15(60) 57 1014 / 29.94
 16:55 Mostly Cloudy  N 24/0 (28/0) 16(60) 58 1014 / 29.94
 15:55 Mostly Cloudy Showers N 22/0 (25/0) 16(60) 60 1014 / 29.94
 14:55 Mostly Cloudy Showers N 20/0 (23/0) 16(61) 56 1014 / 29.95
 14:42 Mostly Cloudy Showers N 18/28 (21/32) 16(61) 58 1014 / 29.94
 14:28 Mostly Cloudy Showers N 21/0 (24/0) 16(60) 58 1014 / 29.94
 13:55 Mostly Cloudy  NNE 19/0 (22/0) 16(61) 54 1014 / 29.95
 12:55 Mostly Cloudy  N 22/0 (25/0) 16(61) 49 1015 / 29.96
 11:55 Mostly Cloudy  N 20/30 (23/35) 16(60) 57 1015 / 29.98
 10:55 Mostly Cloudy  N 21/31 (24/36) 16(61) 49 1016 / 29.99
 09:55 Mostly Cloudy  N 20/0 (23/0) 15(60) 52 1016 / 29.99
 08:55 Mostly Cloudy Showers N 20/0 (23/0) 15(59) 60 1016 / 29.99
 08:44 Mostly Cloudy Showers N 19/0 (22/0) 15(59) 61 1016 / 29.99
 08:30 Mostly Cloudy Showers N 18/0 (21/0) 15(60) 56 1015 / 29.98
 07:55 Mostly Cloudy  N 20/0 (23/0) 15(60) 59 1015 / 29.96
 06:55 Mostly Cloudy  N 21/31 (24/36) 16(61) 56 1014 / 29.94
 05:55 Partly Cloudy  N 18/0 (21/0) 17(62) 59 1013 / 29.92
 04:55 Mostly Cloudy  N 19/0 (22/0) 17(62) 63 1013 / 29.91
 03:55 Mostly Cloudy  N 18/0 (21/0) 17(63) 68 1012 / 29.89
 02:55 Mostly Cloudy  N 12/0 (14/0) 18(64) 66 1013 / 29.90
 01:55 Few Clouds  N 12/0 (14/0) 18(64) 61 1013 / 29.91
 00:55 Partly Cloudy  N 13/0 (15/0) 18(64) 62 1014 / 29.93
 23:55 Mostly Cloudy Showers NNE 14/0 (16/0) 18(64) 69 1014 / 29.94
 23:47 Mostly Cloudy Showers NNE 15/0 (17/0) 18(64) 68 1014 / 29.94
 23:38 Mostly Cloudy Showers N 16/0 (18/0) 18(64) 73 1014 / 29.94
 22:55 Mostly Cloudy Showers N 11/0 (13/0) 18(65) 83 1014 / 29.93
 21:55 Mostly Cloudy  NNW 8/0 (9/0) 18(65) 86 1014 / 29.94
 21:26 Mostly Cloudy Showers NNW 8/0 (9/0) 19(65) 82 1014 / 29.94
 20:55 Mostly Cloudy Showers NW 6/0 (7/0) 19(65) 86 1014 / 29.94
 20:41 Mostly Cloudy Showers NW 6/0 (7/0) 18(65) 86 1014 / 29.94
 19:55 Mostly Cloudy Showers NW 7/0 (8/0) 18(65) 86 1014 / 29.94
 19:38 Mostly Cloudy Showers NW 7/0 (8/0) 18(65) 88 1014 / 29.94
 19:07 Mostly Cloudy Showers N 12/0 (14/0) 18(65) 89 1014 / 29.93
 18:55 Mostly Cloudy Showers NNW 10/0 (12/0) 18(65) 86 1014 / 29.93
 17:55 Mostly Cloudy Showers W 9/0 (10/0) 20(68) 82 1014 / 29.93
 16:55 Mostly Cloudy  WSW 8/0 (9/0) 21(70) 76 1014 / 29.93
 15:55 Mostly Cloudy  SW 10/0 (12/0) 21(71) 74 1014 / 29.93
 14:55 Mostly Cloudy  SW 12/0 (14/0) 21(70) 74 1014 / 29.94
 13:55 Partly Cloudy  SW 12/0 (14/0) 21(70) 73 1014 / 29.94
 12:55 Partly Cloudy  SW 12/0 (14/0) 22(71) 69 1015 / 29.97
 11:55 Partly Cloudy  SW 10/0 (12/0) 22(72) 69 1016 / 29.99
 10:55 Partly Cloudy  SW 10/0 (12/0) 22(71) 73 1016 / 30.00
 09:55 Partly Cloudy  SW 8/0 (9/0) 20(69) 78 1016 / 29.99
 08:55 Mostly Cloudy  WSW 9/0 (10/0) 20(67) 82 1016 / 30.01
 07:55 Mostly Cloudy  SW 10/0 (12/0) 18(65) 85 1015 / 29.98
 06:55 Mostly Cloudy  SSW 9/0 (10/0) 19(66) 86 1015 / 29.97
 05:55 Overcast  SW 10/0 (12/0) 19(66) 86 1015 / 29.97
 04:55 Overcast  SSW 8/0 (9/0) 19(65) 85 1015 / 29.97
 03:55 Overcast  SW 10/0 (12/0) 18(65) 84 1015 / 29.98
 03:30 Overcast  SW 10/0 (12/0) 18(65) 83 1015 / 29.98
 02:55 Overcast Showers SSW 10/0 (12/0) 18(65) 85 1016 / 30.00
 01:55 Overcast Showers SW 9/0 (10/0) 18(64) 89 1016 / 30.01
 01:40 Overcast Showers SW 8/0 (9/0) 18(64) 88 1017 / 30.02
 01:10 Overcast Showers SW 7/0 (8/0) 18(64) 85 1017 / 30.03
 00:55 Overcast Showers W 3/0 (3/0) 18(64) 85 1017 / 30.04
 00:27 Overcast Showers W 4/0 (5/0) 18(64) 85 1017 / 30.03
 23:55 Overcast Showers WNW 10/0 (12/0) 17(63) 86 1018 / 30.05
 23:42 Overcast Showers WNW 11/0 (13/0) 17(63) 87 1018 / 30.05
 23:22 Overcast Showers WSW 13/0 (15/0) 18(64) 87 1018 / 30.06
 23:01 Overcast Showers WSW 19/0 (22/0) 19(66) 81 1018 / 30.05
 22:55 Overcast Showers WSW 11/0 (13/0) 19(67) 77 1018 / 30.05
 21:55 Overcast  SW 12/0 (14/0) 19(67) 78 1017 / 30.04
 20:55 Mostly Cloudy  SW 11/0 (13/0) 19(66) 81 1018 / 30.05
 19:55 Mostly Cloudy  WSW 8/0 (9/0) 18(65) 80 1018 / 30.06
 18:55 Mostly Cloudy  WSW 8/0 (9/0) 19(65) 76 1018 / 30.06
 17:55 Mostly Cloudy  WSW 9/0 (10/0) 19(67) 74 1018 / 30.07
 16:55 Mostly Cloudy  W 11/0 (13/0) 20(68) 72 1018 / 30.06
 15:55 Mostly Cloudy  WSW 13/0 (15/0) 21(69) 71 1018 / 30.06
 14:55 Mostly Cloudy Showers W 14/0 (16/0) 21(69) 71 1018 / 30.06
 13:55 Partly Cloudy  W 14/0 (16/0) 21(70) 68 1018 / 30.07
 12:55 Mostly Cloudy  SW 15/0 (17/0) 21(70) 69 1018 / 30.07
 11:55 Mostly Cloudy  WSW 14/0 (16/0) 21(70) 72 1020 / 30.11
 10:55 Mostly Cloudy  WSW 15/0 (17/0) 20(69) 77 1020 / 30.11
 09:55 Mostly Cloudy Showers VRB 2/0 (2/0) 19(65) 77 1020 / 30.12
 09:36 Mostly Cloudy Showers N 4/0 (5/0) 18(64) 76 1020 / 30.12
 09:13 Mostly Cloudy Showers NW 9/0 (10/0) 17(63) 83 1020 / 30.12
 08:55 Overcast Showers WSW 11/0 (13/0) 18(65) 83 1020 / 30.12
 08:01 Mostly Cloudy Showers SW 13/0 (15/0) 18(65) 80 1020 / 30.11
 07:55 Mostly Cloudy Showers SW 13/0 (15/0) 18(65) 81 1020 / 30.11
 06:55 Mostly Cloudy  WSW 9/0 (10/0) 17(63) 83 1020 / 30.11
 05:55 Partly Cloudy  WSW 7/0 (8/0) 15(59) 85 1020 / 30.11
 04:55 Partly Cloudy  WSW 6/0 (7/0) 15(59) 84 1019 / 30.10
 03:55 Few Clouds  WSW 5/0 (6/0) 14(57) 84 1019 / 30.10
 02:55 Few Clouds  WSW 5/0 (6/0) 14(58) 82 1020 / 30.11
 01:55 Few Clouds  WSW 6/0 (7/0) 14(58) 81 1020 / 30.12
 00:55 Few Clouds  WSW 6/0 (7/0) 16(60) 76 1020 / 30.13
Observations from our AWOS sites are available here (password and username are both 'guest').